createdAt,value
2018-09-17T00:01:42.658Z,15.54
2018-09-17T00:04:11.357Z,15.54
2018-09-17T00:06:40.011Z,15.52
2018-09-17T00:09:10.260Z,15.53
2018-09-17T00:11:39.010Z,15.52
2018-09-17T00:14:07.658Z,15.45
2018-09-17T00:16:36.811Z,15.46
2018-09-17T00:19:05.834Z,15.43
2018-09-17T00:21:34.937Z,15.29
2018-09-17T00:24:03.661Z,15.35
2018-09-17T00:26:32.337Z,15.33
2018-09-17T00:29:01.010Z,15.35
2018-09-17T00:31:29.686Z,15.45
2018-09-17T00:33:58.397Z,15.38
2018-09-17T00:36:27.104Z,15.29
2018-09-17T00:38:55.773Z,15.28
2018-09-17T00:41:24.491Z,15.21
2018-09-17T00:43:53.177Z,15.17
2018-09-17T00:46:21.848Z,15.18
2018-09-17T00:48:50.529Z,15.18
2018-09-17T00:51:19.935Z,15.19
2018-09-17T00:53:48.688Z,15.22
2018-09-17T00:56:17.396Z,15.00
2018-09-17T00:58:46.042Z,14.93
2018-09-17T01:01:14.714Z,14.88
2018-09-17T01:03:43.418Z,14.93
2018-09-17T01:06:12.049Z,14.91
2018-09-17T01:08:40.697Z,14.82
2018-09-17T01:11:09.443Z,14.72
2018-09-17T01:13:38.104Z,14.77
2018-09-17T01:16:06.774Z,14.81
2018-09-17T01:18:35.430Z,14.80
2018-09-17T01:21:04.178Z,14.87
2018-09-17T01:23:32.843Z,15.13
2018-09-17T01:26:01.570Z,15.21
2018-09-17T01:28:30.271Z,15.49
2018-09-17T01:30:58.915Z,15.66
2018-09-17T01:33:27.569Z,15.73
2018-09-17T01:35:56.251Z,15.55
2018-09-17T01:38:24.975Z,15.69
2018-09-17T01:40:53.672Z,15.72
2018-09-17T01:43:22.412Z,15.69
2018-09-17T01:45:51.156Z,15.77
2018-09-17T01:48:19.988Z,15.63
2018-09-17T01:50:48.684Z,15.57
2018-09-17T01:53:17.413Z,15.64
2018-09-17T01:55:46.121Z,15.76
2018-09-17T01:58:14.805Z,15.92
2018-09-17T02:00:43.491Z,15.87
2018-09-17T02:03:12.121Z,15.81
2018-09-17T02:05:40.767Z,15.59
2018-09-17T02:08:09.485Z,15.43
2018-09-17T02:10:38.169Z,15.21
2018-09-17T02:13:07.015Z,15.06
2018-09-17T02:15:36.647Z,14.89
2018-09-17T02:18:05.372Z,14.78
2018-09-17T02:20:34.018Z,14.72
2018-09-17T02:23:02.639Z,14.73
2018-09-17T02:25:31.314Z,14.72
2018-09-17T02:27:59.952Z,14.78
2018-09-17T02:30:28.675Z,14.65
2018-09-17T02:32:57.350Z,14.55
2018-09-17T02:35:26.011Z,14.68
2018-09-17T02:37:54.638Z,13.41
2018-09-17T02:40:23.307Z,14.78
2018-09-17T02:42:51.933Z,14.63
2018-09-17T02:45:21.356Z,14.50
2018-09-17T02:47:50.026Z,14.53
2018-09-17T02:50:18.753Z,14.41
2018-09-17T02:52:47.418Z,14.42
2018-09-17T02:55:16.205Z,14.43
2018-09-17T02:57:44.864Z,14.37
2018-09-17T03:00:13.580Z,14.29
2018-09-17T03:02:42.223Z,14.18
2018-09-17T03:05:10.927Z,14.21
2018-09-17T03:07:39.609Z,14.22
2018-09-17T03:10:08.245Z,14.29
2018-09-17T03:12:36.924Z,14.35
2018-09-17T03:15:16.715Z,14.81
2018-09-17T03:17:45.355Z,14.93
2018-09-17T03:20:14.028Z,14.93
2018-09-17T03:22:42.692Z,14.93
2018-09-17T03:25:11.336Z,14.85
2018-09-17T03:27:39.965Z,14.78
2018-09-17T03:30:08.790Z,14.84
2018-09-17T03:32:37.413Z,14.80
2018-09-17T03:35:06.105Z,14.81
2018-09-17T03:37:34.779Z,15.14
2018-09-17T03:40:03.620Z,15.10
2018-09-17T03:42:33.135Z,14.86
2018-09-17T03:45:01.766Z,15.01
2018-09-17T03:47:30.424Z,15.07
2018-09-17T03:49:59.095Z,15.24
2018-09-17T03:52:27.751Z,15.34
2018-09-17T03:54:56.396Z,15.26
2018-09-17T03:57:25.078Z,15.20
2018-09-17T03:59:53.796Z,15.02
2018-09-17T04:02:22.510Z,15.00
2018-09-17T04:04:51.148Z,14.96
2018-09-17T04:07:19.856Z,14.94
2018-09-17T04:09:48.568Z,14.93
2018-09-17T04:12:17.243Z,14.79
2018-09-17T04:14:45.878Z,14.76
2018-09-17T04:17:14.539Z,14.77
2018-09-17T04:19:43.205Z,14.66
2018-09-17T04:22:11.920Z,14.68
2018-09-17T04:24:40.616Z,14.76
2018-09-17T04:27:09.267Z,14.69
2018-09-17T04:29:38.057Z,14.79
2018-09-17T04:32:06.728Z,14.81
2018-09-17T04:34:35.363Z,15.03
2018-09-17T04:37:04.059Z,15.00
2018-09-17T04:39:32.803Z,15.12
2018-09-17T04:42:01.784Z,15.04
2018-09-17T04:44:30.502Z,14.99
2018-09-17T04:46:59.144Z,14.84
2018-09-17T04:49:27.817Z,14.89
2018-09-17T04:51:56.492Z,14.93
2018-09-17T04:54:25.227Z,15.22
2018-09-17T04:56:53.857Z,15.49
2018-09-17T04:59:22.523Z,15.42
2018-09-17T05:01:51.149Z,15.52
2018-09-17T05:04:19.836Z,15.85
2018-09-17T05:06:48.478Z,16.08
2018-09-17T05:09:17.144Z,15.54
2018-09-17T05:11:45.854Z,16.19
2018-09-17T05:14:14.505Z,16.06
2018-09-17T05:16:43.221Z,16.18
2018-09-17T05:19:11.894Z,16.18
2018-09-17T05:21:40.580Z,16.25
2018-09-17T05:24:09.257Z,16.22
2018-09-17T05:26:47.359Z,16.53
2018-09-17T05:29:18.029Z,16.98
2018-09-17T05:31:46.775Z,17.37
2018-09-17T05:34:15.550Z,16.84
2018-09-17T05:36:50.696Z,16.87
2018-09-17T05:39:19.354Z,17.40
2018-09-17T05:41:48.065Z,17.32
2018-09-17T05:44:17.288Z,16.78
2018-09-17T05:46:45.975Z,17.40
2018-09-17T05:49:14.767Z,17.46
2018-09-17T05:51:51.827Z,17.88
2018-09-17T05:54:20.627Z,18.42
2018-09-17T05:57:04.095Z,18.32
2018-09-17T05:59:32.854Z,17.75
2018-09-17T06:02:01.556Z,17.36
2018-09-17T06:04:30.416Z,16.90
2018-09-17T06:06:59.281Z,16.72
2018-09-17T06:09:27.913Z,16.78
2018-09-17T06:11:56.658Z,16.50
2018-09-17T06:14:25.325Z,16.47
2018-09-17T06:16:53.937Z,16.61
2018-09-17T06:19:22.593Z,16.81
2018-09-17T06:21:51.227Z,16.91
2018-09-17T06:24:19.927Z,17.08
2018-09-17T06:26:48.699Z,16.84
2018-09-17T06:29:17.361Z,16.93
2018-09-17T06:31:46.100Z,16.91
2018-09-17T06:34:14.761Z,16.84
2018-09-17T06:36:43.446Z,16.93
2018-09-17T06:39:12.135Z,17.08
2018-09-17T06:41:40.949Z,16.99
2018-09-17T06:44:09.608Z,17.04
2018-09-17T06:46:38.262Z,17.12
2018-09-17T06:49:06.905Z,17.15
2018-09-17T06:51:35.550Z,17.18
2018-09-17T06:54:04.229Z,17.23
2018-09-17T06:56:32.893Z,17.22
2018-09-17T06:59:01.666Z,17.37
2018-09-17T07:01:30.381Z,17.47
2018-09-17T07:03:59.095Z,17.59
2018-09-17T07:06:27.743Z,17.65
2018-09-17T07:08:56.403Z,17.58
2018-09-17T07:11:25.039Z,17.85
2018-09-17T07:13:53.734Z,18.08
2018-09-17T07:16:22.384Z,18.11
2018-09-17T07:18:51.091Z,18.26
2018-09-17T07:21:19.857Z,18.75
2018-09-17T07:23:48.518Z,18.77
2018-09-17T07:26:17.234Z,19.12
2018-09-17T07:28:45.911Z,18.89
2018-09-17T07:31:14.590Z,19.17
2018-09-17T07:33:43.216Z,19.32
2018-09-17T07:36:11.992Z,19.05
2018-09-17T07:38:40.723Z,19.00
2018-09-17T07:41:09.398Z,18.93
2018-09-17T07:43:38.065Z,19.36
2018-09-17T07:46:06.871Z,19.62
2018-09-17T07:48:35.534Z,19.89
2018-09-17T07:51:04.244Z,20.20
2018-09-17T07:53:32.920Z,20.28
2018-09-17T07:56:01.579Z,20.29
2018-09-17T07:58:30.312Z,20.49
2018-09-17T08:00:59.058Z,21.45
2018-09-17T08:03:27.755Z,22.09
2018-09-17T08:05:56.557Z,22.49
2018-09-17T08:08:25.414Z,23.01
2018-09-17T08:10:54.154Z,23.68
2018-09-17T08:13:22.855Z,23.71
2018-09-17T08:15:51.595Z,24.07
2018-09-17T08:18:20.438Z,23.82
2018-09-17T08:20:49.163Z,24.01
2018-09-17T08:23:17.883Z,24.26
2018-09-17T08:25:46.588Z,24.29
2018-09-17T08:28:15.289Z,24.45
2018-09-17T08:30:44.065Z,24.94
2018-09-17T08:33:12.774Z,25.00
2018-09-17T08:35:41.475Z,25.58
2018-09-17T08:38:10.241Z,25.23
2018-09-17T08:40:39.029Z,25.09
2018-09-17T08:43:07.780Z,25.34
2018-09-17T08:45:36.571Z,25.43
2018-09-17T08:48:05.240Z,25.61
2018-09-17T08:50:33.967Z,25.31
2018-09-17T08:53:02.716Z,25.78
2018-09-17T08:55:36.704Z,25.25
2018-09-17T08:58:10.709Z,25.49
2018-09-17T09:00:44.591Z,25.97
2018-09-17T09:03:18.417Z,25.31
2018-09-17T09:05:52.564Z,25.21
2018-09-17T09:08:21.347Z,25.81
2018-09-17T09:10:54.123Z,26.21
2018-09-17T09:13:28.018Z,26.34
2018-09-17T09:15:57.003Z,26.09
2018-09-17T09:18:25.683Z,26.10
2018-09-17T09:20:54.356Z,25.85
2018-09-17T09:23:23.036Z,25.64
2018-09-17T09:25:51.712Z,26.19
2018-09-17T09:28:20.358Z,26.20
2018-09-17T09:30:49.047Z,26.37
2018-09-17T09:33:17.710Z,27.24
2018-09-17T09:35:46.511Z,26.89
2018-09-17T09:38:15.206Z,27.19
2018-09-17T09:40:44.009Z,27.74
2018-09-17T09:43:12.750Z,26.93
2018-09-17T09:45:41.424Z,27.33
2018-09-17T09:48:10.083Z,28.13
2018-09-17T09:50:38.748Z,28.51
2018-09-17T09:53:07.416Z,28.56
2018-09-17T09:55:36.085Z,28.89
2018-09-17T09:58:04.810Z,28.87
2018-09-17T10:00:38.782Z,28.64
2018-09-17T10:03:12.727Z,28.74
2018-09-17T10:05:41.381Z,28.15
2018-09-17T10:08:10.087Z,28.67
2018-09-17T10:10:43.967Z,28.71
2018-09-17T10:13:17.869Z,28.39
2018-09-17T10:15:50.238Z,27.55
2018-09-17T10:18:24.384Z,27.72
2018-09-17T10:20:53.053Z,28.22
2018-09-17T10:23:21.731Z,29.09
2018-09-17T10:25:50.568Z,28.92
2018-09-17T10:28:19.224Z,28.25
2018-09-17T10:30:47.888Z,28.74
2018-09-17T10:33:16.560Z,28.95
2018-09-17T10:35:45.217Z,29.20
2018-09-17T10:38:13.854Z,29.69
2018-09-17T10:40:43.556Z,29.14
2018-09-17T10:43:12.234Z,28.02
2018-09-17T10:45:40.906Z,27.08
2018-09-17T10:48:09.663Z,26.58
2018-09-17T10:50:38.312Z,26.13
2018-09-17T10:53:06.977Z,26.09
2018-09-17T10:55:35.722Z,26.25
2018-09-17T10:58:04.428Z,26.78
2018-09-17T11:00:33.116Z,26.52
2018-09-17T11:03:01.781Z,27.34
2018-09-17T11:05:30.525Z,28.36
2018-09-17T11:07:59.236Z,29.14
2018-09-17T11:10:27.906Z,29.55
2018-09-17T11:12:56.582Z,29.25
2018-09-17T11:15:31.129Z,28.78
2018-09-17T11:17:59.827Z,27.69
2018-09-17T11:20:28.518Z,26.91
2018-09-17T11:22:57.220Z,27.76
2018-09-17T11:25:26.188Z,26.56
2018-09-17T11:27:55.196Z,29.03
2018-09-17T11:30:23.891Z,29.11
2018-09-17T11:32:52.615Z,29.40
2018-09-17T11:35:21.313Z,30.38
2018-09-17T11:37:49.974Z,29.48
2018-09-17T11:40:18.727Z,29.04
2018-09-17T11:42:47.422Z,29.41
2018-09-17T11:45:16.103Z,29.33
2018-09-17T11:47:44.778Z,29.65
2018-09-17T11:50:13.452Z,30.15
2018-09-17T11:52:42.189Z,30.73
2018-09-17T11:55:10.876Z,30.71
2018-09-17T11:57:39.672Z,30.94
2018-09-17T12:00:10.802Z,30.07
2018-09-17T12:02:43.627Z,29.81
2018-09-17T12:05:16.491Z,30.18
2018-09-17T12:07:45.151Z,29.80
2018-09-17T12:10:13.886Z,30.10
2018-09-17T12:12:42.591Z,29.84
2018-09-17T12:15:11.609Z,29.91
2018-09-17T12:17:40.252Z,29.81
2018-09-17T12:20:09.005Z,28.78
2018-09-17T12:22:37.701Z,29.04
2018-09-17T12:25:06.490Z,29.78
2018-09-17T12:27:35.147Z,30.02
2018-09-17T12:30:07.631Z,28.68
2018-09-17T12:32:36.320Z,28.13
2018-09-17T12:35:05.051Z,28.65
2018-09-17T12:37:34.685Z,28.24
2018-09-17T12:40:03.382Z,27.80
2018-09-17T12:42:32.017Z,28.52
2018-09-17T12:45:00.665Z,29.06
2018-09-17T12:47:29.367Z,29.12
2018-09-17T12:49:58.060Z,28.95
2018-09-17T12:52:26.719Z,28.41
2018-09-17T12:54:55.407Z,27.84
2018-09-17T12:57:24.161Z,26.80
2018-09-17T12:59:52.801Z,26.86
2018-09-17T13:02:21.460Z,27.20
2018-09-17T13:04:50.159Z,27.53
2018-09-17T13:07:19.315Z,26.96
2018-09-17T13:09:48.343Z,26.45
2018-09-17T13:12:17.051Z,26.13
2018-09-17T13:14:45.744Z,26.09
2018-09-17T13:17:14.451Z,26.34
2018-09-17T13:19:43.156Z,26.53
2018-09-17T13:22:11.888Z,26.52
2018-09-17T13:24:40.584Z,26.48
2018-09-17T13:27:09.260Z,26.45
2018-09-17T13:29:38.072Z,26.47
2018-09-17T13:32:06.903Z,26.46
2018-09-17T13:34:35.518Z,26.54
2018-09-17T13:37:04.291Z,26.58
2018-09-17T13:39:33.054Z,26.59
2018-09-17T13:42:01.735Z,26.48
2018-09-17T13:44:30.537Z,26.30
2018-09-17T13:46:59.154Z,26.12
2018-09-17T13:49:27.924Z,26.27
2018-09-17T13:51:56.920Z,26.27
2018-09-17T13:54:25.734Z,26.20
2018-09-17T13:56:54.534Z,26.12
2018-09-17T13:59:23.322Z,26.09
2018-09-17T14:01:52.031Z,26.25
2018-09-17T14:04:20.850Z,26.20
2018-09-17T14:06:49.449Z,26.04
2018-09-17T14:09:18.114Z,25.91
2018-09-17T14:11:46.808Z,26.00
2018-09-17T14:14:15.642Z,25.93
2018-09-17T14:16:44.422Z,25.64
2018-09-17T14:19:13.152Z,25.46
2018-09-17T14:21:41.911Z,25.46
2018-09-17T14:24:10.612Z,25.48
2018-09-17T14:26:39.357Z,25.50
2018-09-17T14:29:08.078Z,25.76
2018-09-17T14:31:41.897Z,26.02
2018-09-17T14:34:10.629Z,25.93
2018-09-17T14:36:39.469Z,25.81
2018-09-17T14:39:09.300Z,25.72
2018-09-17T14:41:38.014Z,25.72
2018-09-17T14:44:06.813Z,25.63
2018-09-17T14:46:35.612Z,25.51
2018-09-17T14:49:04.328Z,25.67
2018-09-17T14:51:33.049Z,25.61
2018-09-17T14:54:01.727Z,25.63
2018-09-17T14:56:30.450Z,25.58
2018-09-17T14:58:59.242Z,25.49
2018-09-17T15:01:28.006Z,25.50
2018-09-17T15:03:56.758Z,25.52
2018-09-17T15:06:25.502Z,25.48
2018-09-17T15:08:54.165Z,25.11
2018-09-17T15:11:22.878Z,25.32
2018-09-17T15:13:51.579Z,25.32
2018-09-17T15:16:20.339Z,25.39
2018-09-17T15:18:49.018Z,25.33
2018-09-17T15:21:17.682Z,25.22
2018-09-17T15:23:46.455Z,25.18
2018-09-17T15:26:15.153Z,24.98
2018-09-17T15:28:43.755Z,24.81
2018-09-17T15:31:12.957Z,24.83
2018-09-17T15:33:41.719Z,24.91
2018-09-17T15:36:10.366Z,24.93
2018-09-17T15:38:39.080Z,24.86
2018-09-17T15:41:07.907Z,24.79
2018-09-17T15:43:36.571Z,24.74
2018-09-17T15:46:05.270Z,24.66
2018-09-17T15:48:33.987Z,24.55
2018-09-17T15:51:02.650Z,24.47
2018-09-17T15:53:31.320Z,24.44
2018-09-17T15:56:00.754Z,24.41
2018-09-17T15:58:29.484Z,24.32
2018-09-17T16:00:58.127Z,24.16
2018-09-17T16:03:26.849Z,24.04
2018-09-17T16:05:55.568Z,23.99
2018-09-17T16:08:24.255Z,23.89
2018-09-17T16:10:52.982Z,23.81
2018-09-17T16:13:21.786Z,23.74
2018-09-17T16:15:50.477Z,23.66
2018-09-17T16:18:19.548Z,23.56
2018-09-17T16:20:48.263Z,23.46
2018-09-17T16:23:19.884Z,23.39
2018-09-17T16:25:48.602Z,23.34
2018-09-17T16:28:17.260Z,23.26
2018-09-17T16:30:45.959Z,23.17
2018-09-17T16:33:14.685Z,23.07
2018-09-17T16:35:43.395Z,22.98
2018-09-17T16:38:12.059Z,22.85
2018-09-17T16:40:40.780Z,22.78
2018-09-17T16:43:09.446Z,22.69
2018-09-17T16:45:38.083Z,22.67
2018-09-17T16:48:06.724Z,22.61
2018-09-17T16:50:35.427Z,22.52
2018-09-17T16:53:04.073Z,22.47
2018-09-17T16:55:32.819Z,22.40
2018-09-17T16:58:01.561Z,22.32
2018-09-17T17:00:31.502Z,22.26
2018-09-17T17:03:00.194Z,22.18
2018-09-17T17:05:28.878Z,22.14
2018-09-17T17:07:57.596Z,22.11
2018-09-17T17:10:26.237Z,22.05
2018-09-17T17:12:54.978Z,21.96
2018-09-17T17:15:23.653Z,21.90
2018-09-17T17:17:52.607Z,21.80
2018-09-17T17:20:21.298Z,21.70
2018-09-17T17:22:49.981Z,21.64
2018-09-17T17:25:18.742Z,21.59
2018-09-17T17:27:47.465Z,21.49
2018-09-17T17:30:18.718Z,21.41
2018-09-17T17:32:47.439Z,21.37
2018-09-17T17:35:16.161Z,21.32
2018-09-17T17:37:44.883Z,21.30
2018-09-17T17:40:13.588Z,21.26
2018-09-17T17:42:42.242Z,21.26
2018-09-17T17:45:10.892Z,21.28
2018-09-17T17:47:39.560Z,21.25
2018-09-17T17:50:08.284Z,21.23
2018-09-17T17:52:37.377Z,21.17
2018-09-17T17:55:06.485Z,21.11
2018-09-17T17:57:35.140Z,21.07
2018-09-17T18:00:05.419Z,20.98
2018-09-17T18:02:34.167Z,20.90
2018-09-17T18:05:02.828Z,20.83
2018-09-17T18:07:31.558Z,20.75
2018-09-17T18:10:00.251Z,20.68
2018-09-17T18:12:28.908Z,20.64
2018-09-17T18:14:57.563Z,20.62
2018-09-17T18:17:26.500Z,20.64
2018-09-17T18:19:55.156Z,20.60
2018-09-17T18:22:23.789Z,20.56
2018-09-17T18:24:52.450Z,20.53
2018-09-17T18:27:21.525Z,20.52
2018-09-17T18:29:50.161Z,20.50
2018-09-17T18:32:18.790Z,20.46
2018-09-17T18:34:47.447Z,20.43
2018-09-17T18:37:16.146Z,20.37
2018-09-17T18:39:44.988Z,20.33
2018-09-17T18:42:13.508Z,20.31
2018-09-17T18:44:42.218Z,20.28
2018-09-17T18:47:10.973Z,20.29
2018-09-17T18:49:39.784Z,20.24
2018-09-17T18:52:08.520Z,20.17
2018-09-17T18:54:37.458Z,20.13
2018-09-17T18:57:06.224Z,20.12
2018-09-17T18:59:34.989Z,20.04
2018-09-17T19:02:03.710Z,20.02
2018-09-17T19:04:32.366Z,19.96
2018-09-17T19:07:01.060Z,19.96
2018-09-17T19:09:34.853Z,19.91
2018-09-17T19:12:03.732Z,19.87
2018-09-17T19:14:37.716Z,19.78
2018-09-17T19:17:11.768Z,19.76
2018-09-17T19:19:40.518Z,19.69
2018-09-17T19:22:14.439Z,19.60
2018-09-17T19:24:42.991Z,19.51
2018-09-17T19:27:11.640Z,19.43
2018-09-17T19:29:40.335Z,19.33
2018-09-17T19:32:09.004Z,19.15
2018-09-17T19:34:37.629Z,19.01
2018-09-17T19:37:11.629Z,18.90
2018-09-17T19:42:20.703Z,18.74
2018-09-17T19:44:54.552Z,18.66
2018-09-17T19:47:23.238Z,18.62
2018-09-17T19:49:52.050Z,18.53
2018-09-17T19:52:23.384Z,18.44
2018-09-17T19:54:52.359Z,18.38
2018-09-17T19:57:26.143Z,18.30
2018-09-17T19:59:56.108Z,18.23
2018-09-17T20:02:25.104Z,18.19
2018-09-17T20:04:58.978Z,18.12
2018-09-17T20:07:27.641Z,18.07
2018-09-17T20:09:56.326Z,18.02
2018-09-17T20:12:24.950Z,17.95
2018-09-17T20:14:53.593Z,17.90
2018-09-17T20:17:22.210Z,17.91
2018-09-17T20:19:50.976Z,17.88
2018-09-17T20:22:19.701Z,17.86
2018-09-17T20:24:48.399Z,17.79
2018-09-17T20:27:17.109Z,17.79
2018-09-17T20:29:45.784Z,17.77
2018-09-17T20:32:14.538Z,17.78
2018-09-17T20:34:43.226Z,17.78
2018-09-17T20:37:12.024Z,17.77
2018-09-17T20:39:40.712Z,17.78
2018-09-17T20:42:09.391Z,17.80
2018-09-17T20:44:38.069Z,17.83
2018-09-17T20:47:07.349Z,17.84
2018-09-17T20:49:36.171Z,17.82
2018-09-17T20:52:04.855Z,17.75
2018-09-17T20:54:33.593Z,17.72
2018-09-17T20:57:02.304Z,17.70
2018-09-17T20:59:31.005Z,17.67
2018-09-17T21:01:59.738Z,17.68
2018-09-17T21:04:28.499Z,17.67
2018-09-17T21:06:57.355Z,17.62
2018-09-17T21:09:26.395Z,17.63
2018-09-17T21:11:55.100Z,17.61
2018-09-17T21:14:23.779Z,17.65
2018-09-17T21:16:52.468Z,17.72
2018-09-17T21:19:21.242Z,17.72
2018-09-17T21:21:49.917Z,17.69
2018-09-17T21:24:18.622Z,17.63
2018-09-17T21:26:47.314Z,17.57
2018-09-17T21:29:16.017Z,17.58
2018-09-17T21:31:44.776Z,17.59
2018-09-17T21:34:13.628Z,17.61
2018-09-17T21:36:42.489Z,17.63
2018-09-17T21:39:14.756Z,17.64
2018-09-17T21:41:43.486Z,17.62
2018-09-17T21:44:12.236Z,17.65
2018-09-17T21:46:40.996Z,17.62
2018-09-17T21:49:09.751Z,17.58
2018-09-17T21:51:38.445Z,17.55
2018-09-17T21:54:07.107Z,17.53
2018-09-17T21:56:35.809Z,17.54
2018-09-17T21:59:04.582Z,17.54
2018-09-17T22:01:33.250Z,17.49
2018-09-17T22:04:01.948Z,17.45
2018-09-17T22:06:30.612Z,17.43
2018-09-17T22:08:59.331Z,17.39
2018-09-17T22:11:28.001Z,17.39
2018-09-17T22:13:56.725Z,17.35
2018-09-17T22:16:25.346Z,17.31
2018-09-17T22:18:54.078Z,17.29
2018-09-17T22:21:22.782Z,17.28
2018-09-17T22:23:51.462Z,17.25
2018-09-17T22:26:20.155Z,17.22
2018-09-17T22:28:48.814Z,17.20
2018-09-17T22:31:17.590Z,17.18
2018-09-17T22:33:46.274Z,17.19
2018-09-17T22:36:14.931Z,17.20
2018-09-17T22:38:43.645Z,17.21
2018-09-17T22:41:12.305Z,17.20
2018-09-17T22:43:40.980Z,17.19
2018-09-17T22:46:09.672Z,17.18
2018-09-17T22:48:38.371Z,17.19
2018-09-17T22:51:07.382Z,17.17
2018-09-17T22:53:36.046Z,17.18
2018-09-17T22:56:04.723Z,17.14
2018-09-17T22:58:33.386Z,17.14
2018-09-17T23:01:02.050Z,17.16
2018-09-17T23:03:30.703Z,17.16
2018-09-17T23:05:59.414Z,17.19
2018-09-17T23:08:28.111Z,17.18
2018-09-17T23:10:56.804Z,17.18
2018-09-17T23:13:25.464Z,17.16
2018-09-17T23:15:54.135Z,17.16
2018-09-17T23:18:22.875Z,17.13
2018-09-17T23:20:51.584Z,17.12
2018-09-17T23:23:20.307Z,17.12
2018-09-17T23:25:48.995Z,16.88
2018-09-17T23:28:17.711Z,17.12
2018-09-17T23:30:46.424Z,17.12
2018-09-17T23:33:15.101Z,17.11
2018-09-17T23:35:43.775Z,17.10
2018-09-17T23:38:12.453Z,17.11
2018-09-17T23:40:41.180Z,17.08
2018-09-17T23:43:09.873Z,17.03
2018-09-17T23:45:38.528Z,16.99
2018-09-17T23:48:07.216Z,16.99
2018-09-17T23:50:35.944Z,16.97
2018-09-17T23:53:04.618Z,16.93
2018-09-17T23:55:33.319Z,16.91
2018-09-17T23:58:01.965Z,16.90
